Time;durP1;ratioP1;P1;durP2;ratioP2;P2;SDS_P1;SDS_P2;PMS_P1;PMS_P2;Temp;Humidity;BMP_temperature;BMP_pressure;BME280_temperature;BME280_humidity;BME280_pressure;Samples;Min_cycle;Max_cycle;Signal;HPM_P1;HPM_P2
2022/09/11 00:00:32;;;;;;;17.25;11.48;;;;;;;-140.66;100.00;55571.53;5040660;28;20033;-72
2022/09/11 00:03:20;;;;;;;15.05;11.70;;;;;;;-140.66;100.00;55571.53;5055311;28;20021;-72
2022/09/11 00:06:09;;;;;;;17.55;11.70;;;;;;;-140.66;100.00;55571.53;5055194;28;20115;-73
2022/09/11 00:08:59;;;;;;;15.30;11.55;;;;;;;-140.66;100.00;55571.53;5053914;28;20104;-72
2022/09/11 00:11:45;;;;;;;17.45;11.82;;;;;;;-140.66;100.00;55571.53;5040224;28;20081;-72
2022/09/11 00:14:30;;;;;;;14.70;12.05;;;;;;;-140.66;100.00;55571.53;5054826;28;20028;-72
2022/09/11 00:17:17;;;;;;;14.43;11.77;;;;;;;-140.66;100.00;55571.53;5054424;28;20449;-72
2022/09/11 00:20:03;;;;;;;13.10;11.02;;;;;;;-140.66;100.00;55571.53;5053656;28;20029;-71
2022/09/11 00:22:52;;;;;;;15.77;12.18;;;;;;;-140.66;100.00;55571.53;5053825;28;20086;-72
2022/09/11 00:25:39;;;;;;;15.82;12.10;;;;;;;-140.66;100.00;55571.53;5054599;28;20021;-72
2022/09/11 00:28:25;;;;;;;12.82;11.10;;;;;;;-140.66;100.00;55571.53;5054994;28;20120;-72
2022/09/11 00:31:13;;;;;;;16.25;12.43;;;;;;;-140.66;100.00;55571.53;5039395;28;20033;-73
2022/09/11 00:33:59;;;;;;;16.42;11.60;;;;;;;-140.66;100.00;55571.53;5026399;28;20106;-72
2022/09/11 00:36:47;;;;;;;15.57;10.30;;;;;;;-140.66;100.00;55571.53;5054598;28;20017;-72
2022/09/11 00:39:32;;;;;;;15.25;11.30;;;;;;;-140.66;100.00;55571.53;5054281;28;20499;-71
2022/09/11 00:42:18;;;;;;;16.70;11.00;;;;;;;-140.66;100.00;55571.53;5054511;28;20465;-72
2022/09/11 00:45:22;;;;;;;14.63;10.75;;;;;;;-140.66;100.00;55571.53;5054398;28;20453;-72
2022/09/11 00:48:10;;;;;;;13.52;10.30;;;;;;;-140.66;100.00;55571.53;5058165;28;20029;-72
2022/09/11 00:50:58;;;;;;;13.73;10.88;;;;;;;-140.66;100.00;55571.53;5058663;28;20429;-73
2022/09/11 00:53:45;;;;;;;12.00;10.40;;;;;;;-140.66;100.00;55571.53;5058147;28;20032;-72
2022/09/11 00:56:36;;;;;;;12.95;10.38;;;;;;;-140.66;100.00;55571.53;5042705;28;20077;-73
2022/09/11 00:59:25;;;;;;;15.13;10.57;;;;;;;-140.66;100.00;55571.53;5058884;28;20029;-73
2022/09/11 01:02:17;;;;;;;14.90;11.05;;;;;;;-140.66;100.00;55571.53;5057504;28;20067;-72
2022/09/11 01:05:05;;;;;;;11.27;10.07;;;;;;;-140.66;100.00;55571.53;5058527;28;20107;-72
2022/09/11 01:07:53;;;;;;;11.60;10.15;;;;;;;-140.66;100.00;55571.53;5058002;28;20416;-72
2022/09/11 01:10:58;;;;;;;14.57;10.88;;;;;;;-140.66;100.00;55571.53;5058466;28;20028;-72
2022/09/11 01:14:03;;;;;;;15.32;10.18;;;;;;;-140.66;100.00;55571.53;5043024;28;20037;-72
2022/09/11 01:17:14;;;;;;;14.32;10.95;;;;;;;-140.66;100.00;55571.53;5057402;28;20028;-72
2022/09/11 01:20:30;;;;;;;14.85;10.40;;;;;;;-140.66;100.00;55571.53;5058034;28;20021;-72
2022/09/11 01:23:37;;;;;;;13.20;10.20;;;;;;;-140.66;100.00;55571.53;5058195;28;20104;-71
2022/09/11 01:26:36;;;;;;;14.88;11.15;;;;;;;-140.66;100.00;55571.53;5057828;28;20028;-72
2022/09/11 01:29:49;;;;;;;20.25;11.43;;;;;;;-140.66;100.00;55571.53;5043461;28;20050;-72
2022/09/11 01:33:12;;;;;;;13.82;10.25;;;;;;;-140.66;100.00;55571.53;5057516;28;20126;-71
2022/09/11 01:36:09;;;;;;;16.83;10.80;;;;;;;-140.66;100.00;55571.53;5057380;28;20036;-72
2022/09/11 01:38:58;;;;;;;12.70;10.10;;;;;;;-140.66;100.00;55571.53;5057030;28;20031;-71
2022/09/11 01:41:52;;;;;;;14.00;10.75;;;;;;;-140.66;100.00;55571.53;5056830;28;20021;-72
2022/09/11 01:44:44;;;;;;;15.70;9.90;;;;;;;-140.66;100.00;55571.53;5057159;28;20041;-72
2022/09/11 01:47:33;;;;;;;13.02;10.30;;;;;;;-140.66;100.00;55571.53;5057167;28;20093;-72
2022/09/11 01:50:22;;;;;;;17.27;10.15;;;;;;;-140.66;100.00;55571.53;5057995;28;20021;-72
2022/09/11 01:53:13;;;;;;;14.23;10.60;;;;;;;-140.66;100.00;55571.53;5057425;28;20036;-72
2022/09/11 01:56:06;;;;;;;15.75;10.35;;;;;;;-140.66;100.00;55571.53;5056233;28;20052;-72
2022/09/11 01:58:58;;;;;;;14.15;9.95;;;;;;;-140.66;100.00;55571.53;5056490;28;20029;-72
2022/09/11 02:01:50;;;;;;;13.25;9.88;;;;;;;-140.66;100.00;55571.53;5056059;28;20104;-72
2022/09/11 02:04:43;;;;;;;13.80;9.13;;;;;;;-140.66;100.00;55571.53;5056241;28;20029;-72
2022/09/11 02:07:58;;;;;;;14.80;10.02;;;;;;;-140.66;100.00;55571.53;5042302;28;20060;-72
2022/09/11 02:10:52;;;;;;;14.15;9.15;;;;;;;-140.66;100.00;55571.53;5041882;28;20434;-72
2022/09/11 02:13:48;;;;;;;10.63;9.50;;;;;;;-140.66;100.00;55571.53;5056089;28;20037;-71
2022/09/11 02:16:50;;;;;;;12.88;9.73;;;;;;;-140.66;100.00;55571.53;5056168;28;20370;-72
2022/09/11 02:19:38;;;;;;;12.05;9.65;;;;;;;-140.66;100.00;55571.53;5056185;28;20044;-72
2022/09/11 02:22:24;;;;;;;11.20;9.20;;;;;;;-140.66;100.00;55571.53;5041805;28;20025;-73
2022/09/11 02:25:10;;;;;;;13.85;9.55;;;;;;;-140.66;100.00;55571.53;5041809;28;20036;-73
2022/09/11 02:27:57;;;;;;;12.93;8.45;;;;;;;-140.66;100.00;55571.53;5042655;28;20059;-73
2022/09/11 02:30:44;;;;;;;12.27;9.02;;;;;;;-140.66;100.00;55571.53;5056120;28;20421;-72
2022/09/11 02:33:29;;;;;;;10.23;9.10;;;;;;;-140.66;100.00;55571.53;5055443;28;20036;-73
2022/09/11 02:36:30;;;;;;;11.40;8.43;;;;;;;-140.66;100.00;55571.53;5055820;28;20017;-72
2022/09/11 02:39:23;;;;;;;10.55;8.88;;;;;;;-140.66;100.00;55571.53;5055841;28;20021;-72
2022/09/11 02:42:11;;;;;;;11.25;8.07;;;;;;;-140.66;100.00;55571.53;5055509;28;20040;-72
2022/09/11 02:45:09;;;;;;;12.45;8.95;;;;;;;-140.66;100.00;55571.53;5055763;28;20025;-73
2022/09/11 02:48:13;;;;;;;10.00;8.40;;;;;;;-140.66;100.00;55571.53;5055704;28;20122;-73
2022/09/11 02:51:07;;;;;;;10.32;8.13;;;;;;;-140.66;100.00;55571.53;5056394;28;20037;-72
2022/09/11 02:54:12;;;;;;;10.50;8.35;;;;;;;-140.66;100.00;55571.53;5041842;28;20027;-72
2022/09/11 02:57:09;;;;;;;11.80;8.63;;;;;;;-140.66;100.00;55571.53;5054871;28;20057;-72
2022/09/11 02:59:59;;;;;;;9.48;8.13;;;;;;;-140.66;100.00;55571.53;5055147;28;20036;-71
2022/09/11 03:02:46;;;;;;;10.10;7.93;;;;;;;-140.66;100.00;55571.53;5041076;28;20053;-71
2022/09/11 03:05:32;;;;;;;11.15;7.95;;;;;;;-140.66;100.00;55571.53;5055619;28;20115;-71
2022/09/11 03:08:18;;;;;;;12.70;8.98;;;;;;;-140.66;100.00;55571.53;5055084;28;20100;-73
2022/09/11 03:11:04;;;;;;;8.63;7.60;;;;;;;-140.66;100.00;55571.53;5041518;28;20532;-72
2022/09/11 03:13:49;;;;;;;10.93;8.43;;;;;;;-140.66;100.00;55571.53;5054608;28;20033;-72
2022/09/11 03:16:35;;;;;;;10.00;7.30;;;;;;;-140.66;100.00;55571.53;5055457;28;20049;-72
2022/09/11 03:19:21;;;;;;;13.02;7.53;;;;;;;-140.66;100.00;55571.53;5055109;28;20416;-72
2022/09/11 03:22:07;;;;;;;9.00;7.85;;;;;;;-140.66;100.00;55571.53;5040344;28;20032;-72
2022/09/11 03:24:53;;;;;;;11.13;8.18;;;;;;;-140.66;100.00;55571.53;5054462;28;20059;-72
2022/09/11 03:27:39;;;;;;;10.60;7.68;;;;;;;-140.66;100.00;55571.53;5040951;28;20033;-72
2022/09/11 03:30:24;;;;;;;10.00;7.30;;;;;;;-140.66;100.00;55571.53;5054496;28;20029;-72
2022/09/11 03:33:10;;;;;;;10.70;7.32;;;;;;;-140.66;100.00;55571.53;5054696;28;20033;-72
2022/09/11 03:35:56;;;;;;;10.45;8.00;;;;;;;-140.66;100.00;55571.53;5040199;28;20021;-73
2022/09/11 03:38:44;;;;;;;9.15;7.50;;;;;;;-140.66;100.00;55571.53;5054966;28;20040;-72
2022/09/11 03:41:30;;;;;;;9.63;7.72;;;;;;;-140.66;100.00;55571.53;5040102;28;20036;-72
2022/09/11 03:44:16;;;;;;;10.35;7.68;;;;;;;-140.66;100.00;55571.53;5040017;28;20021;-72
2022/09/11 03:47:02;;;;;;;13.90;8.00;;;;;;;-140.66;100.00;55571.53;5054317;28;20044;-72
2022/09/11 03:49:48;;;;;;;10.63;7.60;;;;;;;-140.66;100.00;55571.53;5053918;28;20428;-72
2022/09/11 03:52:34;;;;;;;11.32;7.22;;;;;;;-140.66;100.00;55571.53;5055108;28;20032;-72
2022/09/11 03:55:22;;;;;;;10.98;7.28;;;;;;;-140.66;100.00;55571.53;5053818;28;20347;-72
2022/09/11 03:58:08;;;;;;;12.10;8.23;;;;;;;-140.66;100.00;55571.53;5054419;28;20364;-72
2022/09/11 04:00:54;;;;;;;10.52;7.63;;;;;;;-140.66;100.00;55571.53;5054523;28;20340;-72
2022/09/11 04:03:41;;;;;;;8.32;7.10;;;;;;;-140.66;100.00;55571.53;5053614;28;20335;-72
2022/09/11 04:06:26;;;;;;;9.77;7.57;;;;;;;-140.66;100.00;55571.53;5053929;28;20075;-72
2022/09/11 04:09:12;;;;;;;9.65;7.28;;;;;;;-140.66;100.00;55571.53;5054769;28;20047;-72
2022/09/11 04:11:58;;;;;;;12.52;7.28;;;;;;;-140.66;100.00;55571.53;5054214;28;20505;-72
2022/09/11 04:14:44;;;;;;;9.52;7.32;;;;;;;-140.66;100.00;55571.53;5054415;28;20354;-72
2022/09/11 04:17:29;;;;;;;9.88;7.78;;;;;;;-140.66;100.00;55571.53;5054955;28;20475;-72
2022/09/11 04:20:15;;;;;;;8.82;6.93;;;;;;;-140.66;100.00;55571.53;5039775;28;20125;-72
2022/09/11 04:23:01;;;;;;;10.00;6.28;;;;;;;-140.66;100.00;55571.53;5054018;28;20032;-71
2022/09/11 04:25:47;;;;;;;9.23;7.50;;;;;;;-140.66;100.00;55571.53;5053743;28;20033;-72
2022/09/11 04:28:34;;;;;;;9.07;6.15;;;;;;;-140.66;100.00;55571.53;5053418;28;20028;-72
2022/09/11 04:31:20;;;;;;;9.63;6.30;;;;;;;-140.66;100.00;55571.53;5039757;28;20035;-73
2022/09/11 04:34:06;;;;;;;9.27;6.32;;;;;;;-140.66;100.00;55571.53;5053688;28;20171;-71
2022/09/11 04:36:54;;;;;;;8.80;6.25;;;;;;;-140.66;100.00;55571.53;5053826;28;20029;-71
2022/09/11 04:39:39;;;;;;;7.82;6.15;;;;;;;-140.66;100.00;55571.53;5039736;28;20112;-72
2022/09/11 04:42:25;;;;;;;10.52;6.47;;;;;;;-140.66;100.00;55571.53;5053143;28;20434;-71
2022/09/11 04:45:12;;;;;;;8.63;6.47;;;;;;;-140.66;100.00;55571.53;5052857;28;20112;-72
2022/09/11 04:47:59;;;;;;;6.50;5.82;;;;;;;-140.66;100.00;55571.53;5053305;28;20040;-72
2022/09/11 04:50:47;;;;;;;9.27;6.25;;;;;;;-140.66;100.00;55571.53;5053271;28;20029;-72
2022/09/11 04:53:34;;;;;;;9.38;5.80;;;;;;;-140.66;100.00;55571.53;5052439;28;20033;-72
2022/09/11 04:56:20;;;;;;;9.60;5.95;;;;;;;-140.66;100.00;55571.53;5053184;28;20056;-72
2022/09/11 04:59:14;;;;;;;7.85;6.03;;;;;;;-140.66;100.00;55571.53;5053205;28;20373;-72
2022/09/11 05:02:00;;;;;;;9.43;5.82;;;;;;;-140.66;100.00;55571.53;5053501;28;20025;-72
2022/09/11 05:04:46;;;;;;;9.48;6.05;;;;;;;-140.66;100.00;55571.53;5052856;28;20021;-72
2022/09/11 05:07:32;;;;;;;8.02;6.38;;;;;;;-140.66;100.00;55571.53;5053308;28;20025;-72
2022/09/11 05:10:19;;;;;;;6.97;5.57;;;;;;;-140.66;100.00;55571.53;5053695;28;20025;-72
2022/09/11 05:13:04;;;;;;;9.25;5.30;;;;;;;-140.66;100.00;55571.53;5052781;28;20057;-72
2022/09/11 05:15:50;;;;;;;8.23;5.72;;;;;;;-140.66;100.00;55571.53;5053108;28;20024;-72
2022/09/11 05:18:40;;;;;;;6.97;5.07;;;;;;;-140.66;100.00;55571.53;5053111;28;20021;-71
2022/09/11 05:21:27;;;;;;;14.93;7.35;;;;;;;-140.66;100.00;55571.53;5053510;28;20111;-72
2022/09/11 05:24:13;;;;;;;6.90;5.50;;;;;;;-140.66;100.00;55571.53;5052772;28;20426;-72
2022/09/11 05:27:00;;;;;;;6.93;5.43;;;;;;;-140.66;100.00;55571.53;5054118;28;20091;-72
2022/09/11 05:29:45;;;;;;;8.20;5.20;;;;;;;-140.66;100.00;55571.53;5052915;28;20424;-72
2022/09/11 05:32:31;;;;;;;6.38;4.80;;;;;;;-140.66;100.00;55571.53;5054428;28;20114;-72
2022/09/11 05:35:17;;;;;;;10.05;5.32;;;;;;;-140.66;100.00;55571.53;5056570;28;20017;-72
2022/09/11 05:38:03;;;;;;;12.10;5.47;;;;;;;-140.66;100.00;55571.53;5042591;28;20373;-72
2022/09/11 05:40:51;;;;;;;8.45;5.28;;;;;;;-140.66;100.00;55571.53;5056830;28;20040;-72
2022/09/11 05:43:37;;;;;;;6.78;4.88;;;;;;;-140.66;100.00;55571.53;5042721;28;20067;-73
2022/09/11 05:46:24;;;;;;;6.13;5.20;;;;;;;-140.66;100.00;55571.53;5056517;28;20512;-72
2022/09/11 05:49:10;;;;;;;8.60;4.97;;;;;;;-140.66;100.00;55571.53;5042675;28;20061;-73
2022/09/11 05:51:55;;;;;;;6.10;4.93;;;;;;;-140.66;100.00;55571.53;5056552;28;20044;-72
2022/09/11 05:54:41;;;;;;;7.72;5.88;;;;;;;-140.66;100.00;55571.53;5056940;28;20033;-72
2022/09/11 05:57:27;;;;;;;6.70;5.35;;;;;;;-140.66;100.00;55571.53;5056148;28;20120;-72
2022/09/11 06:00:13;;;;;;;6.40;5.03;;;;;;;-140.66;100.00;55571.53;5042717;28;20047;-72
2022/09/11 06:02:59;;;;;;;7.78;4.97;;;;;;;-140.66;100.00;55571.53;5056742;28;20039;-72
2022/09/11 06:05:44;;;;;;;7.38;5.18;;;;;;;-140.66;100.00;55571.53;5042060;28;20021;-72
2022/09/11 06:08:33;;;;;;;6.13;4.70;;;;;;;-140.66;100.00;55571.53;5056962;28;20078;-72
2022/09/11 06:11:20;;;;;;;11.77;5.10;;;;;;;-140.66;100.00;55571.53;5042358;28;20108;-72
2022/09/11 06:14:06;;;;;;;7.45;4.78;;;;;;;-140.66;100.00;55571.53;5042253;28;20094;-72
2022/09/11 06:16:56;;;;;;;6.80;4.65;;;;;;;-140.66;100.00;55571.53;5056126;28;20064;-72
2022/09/11 06:19:41;;;;;;;10.73;5.40;;;;;;;-140.66;100.00;55571.53;5056231;28;20028;-72
2022/09/11 06:22:28;;;;;;;5.40;4.30;;;;;;;-140.66;100.00;55571.53;5056460;28;20402;-72
2022/09/11 06:25:14;;;;;;;7.93;4.40;;;;;;;-140.66;100.00;55571.53;5056373;28;20021;-72
2022/09/11 06:28:00;;;;;;;5.72;4.35;;;;;;;-140.66;100.00;55571.53;5056117;28;20033;-72
2022/09/11 06:30:48;;;;;;;6.93;4.28;;;;;;;-140.66;100.00;55571.53;5042113;28;20434;-73
2022/09/11 06:33:39;;;;;;;6.78;4.30;;;;;;;-140.66;100.00;55571.53;5056059;28;20122;-72
2022/09/11 06:36:25;;;;;;;5.78;4.40;;;;;;;-140.66;100.00;55571.53;5056339;28;20195;-72
2022/09/11 06:39:11;;;;;;;9.38;4.72;;;;;;;-140.66;100.00;55571.53;5056819;28;20037;-74
2022/09/11 06:41:57;;;;;;;6.22;4.22;;;;;;;-140.66;100.00;55571.53;5055989;28;20033;-72
2022/09/11 06:44:42;;;;;;;8.35;4.20;;;;;;;-140.66;100.00;55571.53;5040954;28;20071;-72
2022/09/11 06:47:28;;;;;;;5.50;4.10;;;;;;;-140.66;100.00;55571.53;5055690;28;20036;-72
2022/09/11 06:50:14;;;;;;;5.50;4.13;;;;;;;-140.66;100.00;55571.53;5056109;28;20040;-73
2022/09/11 06:53:00;;;;;;;8.60;4.22;;;;;;;-140.66;100.00;55571.53;5055704;28;20107;-72
2022/09/11 06:55:46;;;;;;;4.93;3.97;;;;;;;-140.66;100.00;55571.53;5054940;28;20076;-72
2022/09/11 06:58:32;;;;;;;5.95;3.78;;;;;;;-140.66;100.00;55571.53;5055002;28;20100;-73
2022/09/11 07:01:19;;;;;;;4.28;3.88;;;;;;;-140.66;100.00;55571.53;5055667;28;20437;-73
2022/09/11 07:04:05;;;;;;;6.13;4.22;;;;;;;-140.66;100.00;55571.53;5055616;28;20029;-73
2022/09/11 07:06:51;;;;;;;5.50;3.88;;;;;;;-140.66;100.00;55571.53;5040732;28;20040;-72
2022/09/11 07:09:38;;;;;;;5.07;3.80;;;;;;;-140.66;100.00;55571.53;5054944;28;20470;-73
2022/09/11 07:12:24;;;;;;;5.85;4.20;;;;;;;-140.66;100.00;55571.53;5055062;28;20385;-73
2022/09/11 07:15:10;;;;;;;5.72;3.75;;;;;;;-140.66;100.00;55571.53;5055123;28;20025;-72
2022/09/11 07:17:55;;;;;;;7.75;3.63;;;;;;;-140.66;100.00;55571.53;5041060;28;20365;-72
2022/09/11 07:20:41;;;;;;;7.28;3.50;;;;;;;-140.66;100.00;55571.53;5055621;28;20068;-73
2022/09/11 07:23:27;;;;;;;7.35;3.33;;;;;;;-140.66;100.00;55571.53;5055326;28;20039;-73
2022/09/11 07:26:12;;;;;;;5.45;3.30;;;;;;;-140.66;100.00;55571.53;5055265;28;20029;-72
2022/09/11 07:28:59;;;;;;;4.68;3.00;;;;;;;-140.66;100.00;55571.53;5054240;28;20064;-72
2022/09/11 07:31:45;;;;;;;5.45;3.47;;;;;;;-140.66;100.00;55571.53;5040608;28;20106;-73
2022/09/11 07:34:31;;;;;;;4.47;3.35;;;;;;;-140.66;100.00;55571.53;5040307;28;20487;-71
2022/09/11 07:37:16;;;;;;;5.65;3.10;;;;;;;-140.66;100.00;55571.53;5054607;28;20104;-72
2022/09/11 07:40:03;;;;;;;4.82;3.00;;;;;;;-140.66;100.00;55571.53;5054301;28;20103;-72
2022/09/11 07:42:49;;;;;;;6.03;3.50;;;;;;;-140.66;100.00;55571.53;5040506;28;20033;-72
2022/09/11 07:45:35;;;;;;;6.28;3.42;;;;;;;-140.66;100.00;55571.53;5054250;28;20035;-73
2022/09/11 07:48:21;;;;;;;4.38;3.33;;;;;;;-140.66;100.00;55571.53;5054598;28;20126;-72
2022/09/11 07:51:09;;;;;;;6.28;3.45;;;;;;;-140.66;100.00;55571.53;5041361;28;20029;-72
2022/09/11 07:53:58;;;;;;;3.75;2.90;;;;;;;-140.66;100.00;55571.53;5054106;28;20492;-72
2022/09/11 07:56:44;;;;;;;5.55;3.40;;;;;;;-140.66;100.00;55571.53;5053471;28;20045;-72
2022/09/11 07:59:29;;;;;;;5.45;3.60;;;;;;;-140.66;100.00;55571.53;5055131;28;20033;-72
2022/09/11 08:02:16;;;;;;;5.43;3.13;;;;;;;-140.66;100.00;55571.53;5053945;28;20104;-72
2022/09/11 08:05:02;;;;;;;5.57;3.22;;;;;;;-140.66;100.00;55571.53;5039627;28;20128;-72
2022/09/11 08:07:48;;;;;;;5.78;3.70;;;;;;;-140.66;100.00;55571.53;5053785;28;20036;-72
2022/09/11 08:10:37;;;;;;;5.25;3.40;;;;;;;-140.66;100.00;55571.53;5053725;28;20025;-71
2022/09/11 08:13:24;;;;;;;3.67;2.97;;;;;;;-140.66;100.00;55571.53;5054308;28;20029;-72
2022/09/11 08:16:09;;;;;;;4.30;2.80;;;;;;;-140.66;100.00;55571.53;5039673;28;20025;-72
2022/09/11 08:18:55;;;;;;;6.55;3.10;;;;;;;-140.66;100.00;55571.53;5053902;28;20078;-73
2022/09/11 08:21:41;;;;;;;3.72;3.00;;;;;;;-140.66;100.00;55571.53;5053429;28;20059;-73
2022/09/11 08:24:27;;;;;;;4.05;2.95;;;;;;;-140.66;100.00;55571.53;5053330;28;20073;-73
2022/09/11 08:27:12;;;;;;;5.07;2.70;;;;;;;-140.66;100.00;55571.53;5054194;28;20048;-72
2022/09/11 08:29:58;;;;;;;3.17;2.47;;;;;;;-140.66;100.00;55571.53;5053600;28;20029;-72
2022/09/11 08:32:44;;;;;;;4.88;2.70;;;;;;;-140.66;100.00;55571.53;5053398;28;20044;-73
2022/09/11 08:35:30;;;;;;;3.80;2.67;;;;;;;-140.66;100.00;55571.53;5053087;28;20067;-73
2022/09/11 08:38:17;;;;;;;2.70;2.50;;;;;;;-140.66;100.00;55571.53;5053222;28;20039;-72
2022/09/11 08:41:40;;;;;;;5.75;2.67;;;;;;;-140.66;100.00;55571.53;5053825;28;20029;-73
2022/09/11 08:44:40;;;;;;;3.13;2.50;;;;;;;-140.66;100.00;55571.53;5053360;28;20029;-73
2022/09/11 08:47:34;;;;;;;5.53;3.22;;;;;;;-140.66;100.00;55571.53;5053417;28;20353;-72
2022/09/11 08:50:24;;;;;;;4.78;2.47;;;;;;;-140.66;100.00;55571.53;5053356;28;20357;-73
2022/09/11 08:53:16;;;;;;;5.45;2.58;;;;;;;-140.66;100.00;55571.53;5053246;28;20021;-73
2022/09/11 08:56:11;;;;;;;5.25;2.35;;;;;;;-140.66;100.00;55571.53;5053139;28;20041;-73
2022/09/11 08:59:25;;;;;;;5.10;2.60;;;;;;;-140.66;100.00;55571.53;5053481;28;20049;-72
2022/09/11 09:02:11;;;;;;;5.28;2.22;;;;;;;-140.66;100.00;55571.53;5053685;28;20052;-73
2022/09/11 09:05:20;;;;;;;6.38;2.10;;;;;;;-140.66;100.00;55571.53;5052994;28;20025;-72
2022/09/11 09:08:43;;;;;;;2.42;2.20;;;;;;;-140.66;100.00;55571.53;5024801;28;20037;-72
2022/09/11 09:11:42;;;;;;;6.43;2.25;;;;;;;-140.66;100.00;55571.53;5056887;28;20131;-72
2022/09/11 09:14:56;;;;;;;6.07;2.45;;;;;;;-140.66;100.00;55571.53;5056748;28;20123;-72
2022/09/11 09:17:55;;;;;;;5.80;3.03;;;;;;;-140.66;100.00;55571.53;5059903;28;20043;-72
2022/09/11 09:20:45;;;;;;;3.28;2.15;;;;;;;-140.66;100.00;55571.53;5057263;28;20025;-72
2022/09/11 09:23:41;;;;;;;5.18;3.22;;;;;;;-140.66;100.00;55571.53;5042820;28;20463;-73
2022/09/11 09:26:38;;;;;;;11.15;7.82;;;;;;;-140.66;100.00;55571.53;5057828;28;20021;-73
2022/09/11 09:29:35;;;;;;;2.60;1.92;;;;;;;-140.66;100.00;55571.53;5057608;28;20029;-73
2022/09/11 09:32:29;;;;;;;2.22;1.77;;;;;;;-140.66;100.00;55571.53;5043290;28;20062;-73
2022/09/11 09:35:25;;;;;;;5.85;2.20;;;;;;;-140.66;100.00;55571.53;5056559;28;20035;-73
2022/09/11 09:38:17;;;;;;;3.55;1.73;;;;;;;-140.66;100.00;55571.53;5057083;28;20112;-73
2022/09/11 09:41:39;;;;;;;1.80;1.55;;;;;;;-140.66;100.00;55571.53;5056554;28;20025;-73
2022/09/11 09:44:46;;;;;;;2.13;1.63;;;;;;;-140.66;100.00;55571.53;5056641;28;20095;-72
2022/09/11 09:47:32;;;;;;;5.13;1.63;;;;;;;-140.66;100.00;55571.53;5057754;28;20036;-73
2022/09/11 09:50:33;;;;;;;2.28;1.40;;;;;;;-140.66;100.00;55571.53;5056372;28;20052;-73
2022/09/11 09:53:40;;;;;;;2.53;1.52;;;;;;;-140.66;100.00;55571.53;5056674;28;20101;-72
2022/09/11 09:56:30;;;;;;;2.65;1.33;;;;;;;-140.66;100.00;55571.53;5056128;28;20528;-73
2022/09/11 09:59:25;;;;;;;3.78;1.48;;;;;;;-140.66;100.00;55571.53;5056165;28;20167;-73
2022/09/11 10:02:11;;;;;;;1.90;1.40;;;;;;;-140.66;100.00;55571.53;5056361;28;20124;-72
2022/09/11 10:05:17;;;;;;;3.50;1.60;;;;;;;-140.66;100.00;55571.53;5056499;28;20029;-72
2022/09/11 10:08:05;;;;;;;3.08;1.23;;;;;;;-140.66;100.00;55571.53;5042580;28;20464;-72
2022/09/11 10:11:05;;;;;;;2.75;1.30;;;;;;;-140.66;100.00;55571.53;5056254;28;20039;-73
2022/09/11 10:13:54;;;;;;;3.28;1.30;;;;;;;-140.66;100.00;55571.53;5056294;28;20147;-73
2022/09/11 10:16:40;;;;;;;3.55;1.50;;;;;;;-140.66;100.00;55571.53;5055742;28;20402;-72
2022/09/11 10:19:37;;;;;;;2.70;1.60;;;;;;;-140.66;100.00;55571.53;5055974;28;20115;-72
2022/09/11 10:22:31;;;;;;;3.53;1.70;;;;;;;-140.66;100.00;55571.53;5056167;28;20024;-72
2022/09/11 10:25:25;;;;;;;1.98;1.65;;;;;;;-140.66;100.00;55571.53;5056199;28;20029;-72
2022/09/11 10:28:16;;;;;;;2.20;1.70;;;;;;;-140.66;100.00;55571.53;5040923;28;20040;-72
2022/09/11 10:31:04;;;;;;;1.98;1.55;;;;;;;-140.66;100.00;55571.53;5041946;28;20457;-73
2022/09/11 10:33:51;;;;;;;2.05;1.40;;;;;;;-140.66;100.00;55571.53;5055214;28;20073;-73
2022/09/11 10:36:37;;;;;;;3.42;1.50;;;;;;;-140.66;100.00;55571.53;5055831;28;20032;-73
2022/09/11 10:39:24;;;;;;;3.70;1.60;;;;;;;-140.66;100.00;55571.53;5055269;28;20450;-72
2022/09/11 10:42:21;;;;;;;1.58;1.40;;;;;;;-140.66;100.00;55571.53;5041861;28;20029;-73
2022/09/11 10:45:15;;;;;;;2.03;1.33;;;;;;;-140.66;100.00;55571.53;5055648;28;20029;-73
2022/09/11 10:48:22;;;;;;;2.20;1.50;;;;;;;-140.66;100.00;55571.53;5055763;28;20039;-72
2022/09/11 10:51:11;;;;;;;2.53;1.42;;;;;;;-140.66;100.00;55571.53;5055432;28;20029;-72
2022/09/11 10:54:20;;;;;;;4.10;1.35;;;;;;;-140.66;100.00;55571.53;5041681;28;20373;-72
2022/09/11 10:57:37;;;;;;;3.35;1.40;;;;;;;-140.66;100.00;55571.53;5054590;28;20084;-73
2022/09/11 11:00:26;;;;;;;1.65;1.17;;;;;;;-140.66;100.00;55571.53;5055387;28;20412;-73
2022/09/11 11:03:17;;;;;;;2.05;1.23;;;;;;;-140.66;100.00;55571.53;5055009;28;20035;-73
2022/09/11 11:06:26;;;;;;;2.35;1.42;;;;;;;-140.66;100.00;55571.53;5056947;28;20032;-73
2022/09/11 11:09:36;;;;;;;3.47;1.50;;;;;;;-140.66;100.00;55571.53;5055110;28;20107;-72
2022/09/11 11:12:39;;;;;;;1.88;1.45;;;;;;;-140.66;100.00;55571.53;5054701;28;20024;-73
2022/09/11 11:15:29;;;;;;;2.35;1.10;;;;;;;-140.66;100.00;55571.53;5041047;28;20122;-73
2022/09/11 11:18:26;;;;;;;2.85;1.40;;;;;;;-140.66;100.00;55571.53;5041154;28;20025;-75
2022/09/11 11:21:53;;;;;;;3.20;1.50;;;;;;;-140.66;100.00;55571.53;5055046;28;20025;-75
2022/09/11 11:24:45;;;;;;;1.92;1.20;;;;;;;-140.66;100.00;55571.53;5054362;28;20037;-73
2022/09/11 11:27:42;;;;;;;3.03;1.23;;;;;;;-140.66;100.00;55571.53;5055713;28;20055;-73
2022/09/11 11:30:55;;;;;;;1.33;1.23;;;;;;;-140.66;100.00;55571.53;5053792;28;20037;-73
2022/09/11 11:33:49;;;;;;;2.88;1.30;;;;;;;-140.66;100.00;55571.53;5054360;28;20098;-73
2022/09/11 11:37:11;;;;;;;5.30;1.67;;;;;;;-140.66;100.00;55571.53;5054592;28;20063;-72
2022/09/11 11:40:16;;;;;;;4.20;1.88;;;;;;;-140.66;100.00;55571.53;5040296;28;20361;-72
2022/09/11 11:43:16;;;;;;;6.80;2.40;;;;;;;-140.66;100.00;55571.53;5055230;28;20024;-73
2022/09/11 11:46:14;;;;;;;4.22;2.78;;;;;;;-140.66;100.00;55571.53;5040168;28;20122;-72
2022/09/11 11:49:05;;;;;;;5.50;3.40;;;;;;;-140.66;100.00;55571.53;5039635;28;20044;-72
2022/09/11 11:51:59;;;;;;;5.97;3.25;;;;;;;-140.66;100.00;55571.53;5054163;28;20158;-73
2022/09/11 11:55:12;;;;;;;6.80;3.28;;;;;;;-140.66;100.00;55571.53;5040176;28;20060;-73
2022/09/11 11:58:12;;;;;;;5.72;2.45;;;;;;;-140.66;100.00;55571.53;5054856;28;20040;-72
2022/09/11 12:01:03;;;;;;;3.70;2.33;;;;;;;-140.66;100.00;55571.53;5040176;28;20066;-73
2022/09/11 12:04:03;;;;;;;2.83;1.90;;;;;;;-140.66;100.00;55571.53;5054191;28;20020;-73
2022/09/11 12:06:50;;;;;;;5.50;1.80;;;;;;;-140.66;100.00;55571.53;5053824;28;20032;-72
2022/09/11 12:09:35;;;;;;;3.70;1.60;;;;;;;-140.66;100.00;55571.53;5039957;28;20071;-72
2022/09/11 12:12:23;;;;;;;3.42;1.80;;;;;;;-140.66;100.00;55571.53;5055004;28;20112;-73
2022/09/11 12:15:20;;;;;;;2.67;1.60;;;;;;;-140.66;100.00;55571.53;5055256;28;20091;-73
2022/09/11 12:18:23;;;;;;;2.40;1.67;;;;;;;-140.66;100.00;55571.53;5053781;28;20041;-72
2022/09/11 12:21:23;;;;;;;2.60;1.50;;;;;;;-140.66;100.00;55571.53;5054234;28;20025;-72
2022/09/11 12:24:13;;;;;;;4.32;1.42;;;;;;;-140.66;100.00;55571.53;5053686;28;20033;-72
2022/09/11 12:27:33;;;;;;;2.78;1.10;;;;;;;-140.66;100.00;55571.53;5053412;28;20025;-73
2022/09/11 12:30:21;;;;;;;2.13;1.23;;;;;;;-140.66;100.00;55571.53;5053943;28;20024;-73
2022/09/11 12:33:43;;;;;;;1.85;1.20;;;;;;;-140.66;100.00;55571.53;5039340;28;20112;-72
2022/09/11 12:36:32;;;;;;;2.88;1.10;;;;;;;-140.66;100.00;55571.53;5053608;28;20028;-72
2022/09/11 12:39:28;;;;;;;2.33;1.20;;;;;;;-140.66;100.00;55571.53;5039472;28;20040;-73
2022/09/11 12:42:21;;;;;;;2.50;1.35;;;;;;;-140.66;100.00;55571.53;5052742;28;20027;-73
2022/09/11 12:45:34;;;;;;;2.20;1.20;;;;;;;-140.66;100.00;55571.53;5040431;28;20086;-72
2022/09/11 12:48:24;;;;;;;2.70;1.27;;;;;;;-140.66;100.00;55571.53;5053138;28;20365;-73
2022/09/11 12:51:43;;;;;;;2.13;1.30;;;;;;;-140.66;100.00;55571.53;5053520;28;20531;-73
2022/09/11 12:54:38;;;;;;;2.40;1.33;;;;;;;-140.66;100.00;55571.53;5050494;28;20048;-73